Time;durP1;ratioP1;P1;durP2;ratioP2;P2;SDS_P1;SDS_P2;PMS_P1;PMS_P2;Temp;Humidity;BMP_temperature;BMP_pressure;BME280_temperature;BME280_humidity;BME280_pressure;Samples;Min_cycle;Max_cycle;Signal;HPM_P1;HPM_P2
2021/05/29 00:02:13;;;;;;;1999.90;999.90;;;;;;;11.52;74.86;101793.81;15831056;28;20039;-64
2021/05/29 00:09:45;;;;;;;1999.90;999.90;;;;;;;11.36;75.02;101796.13;15847949;28;20043;-65
2021/05/29 00:17:18;;;;;;;1999.90;999.90;;;;;;;11.25;75.19;101792.72;15865859;28;20050;-65
2021/05/29 00:24:51;;;;;;;1999.90;999.90;;;;;;;11.21;75.31;101802.00;15848189;28;20040;-64
2021/05/29 00:32:24;;;;;;;1999.90;999.90;;;;;;;11.23;75.96;101785.75;15866854;28;20112;-63
2021/05/29 00:39:57;;;;;;;1999.90;999.90;;;;;;;11.35;75.85;101790.81;15865473;28;20063;-64
2021/05/29 00:47:29;;;;;;;1999.90;999.90;;;;;;;11.32;76.00;101780.28;15865255;28;20043;-64
2021/05/29 00:55:04;;;;;;;1999.90;999.90;;;;;;;11.29;75.76;101792.91;15847696;28;20062;-63
2021/05/29 01:02:35;;;;;;;1999.90;999.90;;;;;;;11.12;76.68;101793.53;15846721;28;20438;-64
2021/05/29 01:10:10;;;;;;;1999.90;999.90;;;;;;;11.20;76.16;101797.56;15850596;28;20040;-64
2021/05/29 01:17:41;;;;;;;1999.90;999.90;;;;;;;11.08;76.32;101792.50;15876558;28;20040;-64
2021/05/29 01:25:21;;;;;;;1999.90;999.90;;;;;;;11.16;76.22;101791.78;15878185;28;20044;-63
2021/05/29 01:32:54;;;;;;;1999.90;999.90;;;;;;;11.13;76.72;101792.38;15857361;28;20043;-63
2021/05/29 01:40:26;;;;;;;1999.90;999.90;;;;;;;11.06;76.36;101799.53;15875546;28;20425;-63
2021/05/29 01:47:58;;;;;;;1999.90;999.90;;;;;;;11.08;75.75;101805.63;15856147;28;20135;-63
2021/05/29 01:55:32;;;;;;;1999.90;999.90;;;;;;;10.99;76.13;101806.34;15874246;28;20035;-64
2021/05/29 02:03:04;;;;;;;1999.90;999.90;;;;;;;11.04;76.15;101801.78;15838474;28;20068;-64
2021/05/29 02:10:39;;;;;;;1999.90;999.90;;;;;;;10.97;76.54;101807.81;15854761;28;20496;-63
2021/05/29 02:18:11;;;;;;;1999.90;999.90;;;;;;;10.81;76.66;101812.03;15872558;28;20047;-64
2021/05/29 02:25:44;;;;;;;1999.90;999.90;;;;;;;10.79;75.62;101803.97;15871488;28;20044;-64
2021/05/29 02:33:16;;;;;;;1999.90;999.90;;;;;;;10.79;75.33;101801.16;15871594;28;20047;-64
2021/05/29 02:40:49;;;;;;;1999.90;999.90;;;;;;;10.58;76.20;101805.47;15871924;28;20044;-64
2021/05/29 02:48:21;;;;;;;1999.90;999.90;;;;;;;10.61;76.14;101810.44;15852327;28;20071;-64
2021/05/29 02:55:53;;;;;;;1999.90;999.90;;;;;;;10.63;76.53;101813.78;15871475;28;20061;-64
2021/05/29 03:03:25;;;;;;;1999.90;999.90;;;;;;;10.77;76.37;101819.38;15851820;28;20067;-63
2021/05/29 03:10:57;;;;;;;1999.90;999.90;;;;;;;10.83;76.46;101818.13;15852368;28;20039;-62
2021/05/29 03:18:29;;;;;;;1999.90;999.90;;;;;;;10.83;76.94;101827.31;15870561;28;20168;-62
2021/05/29 03:26:01;;;;;;;1999.90;999.90;;;;;;;10.99;76.34;101825.91;15870105;28;20050;-63
2021/05/29 03:33:34;;;;;;;1999.90;999.90;;;;;;;10.92;76.60;101825.47;15850702;28;20043;-63
2021/05/29 03:41:07;;;;;;;1999.90;999.90;;;;;;;10.98;77.15;101838.22;15850042;28;20062;-64
2021/05/29 03:48:39;;;;;;;1999.90;999.90;;;;;;;11.20;76.64;101843.09;15866591;28;20059;-64
2021/05/29 03:56:11;;;;;;;1999.90;999.90;;;;;;;11.40;76.50;101838.22;15867079;28;20071;-64
2021/05/29 04:03:43;;;;;;;1999.90;999.90;;;;;;;11.42;76.51;101847.94;15866497;28;20443;-64
2021/05/29 04:11:16;;;;;;;1999.90;999.90;;;;;;;11.19;78.44;101857.38;15848059;28;20043;-64
2021/05/29 04:18:48;;;;;;;1999.90;999.90;;;;;;;11.41;76.77;101860.28;15866033;28;20047;-64
2021/05/29 04:26:20;;;;;;;1999.90;999.90;;;;;;;11.22;77.35;101854.78;15847787;28;20044;-63
2021/05/29 04:33:53;;;;;;;1999.90;999.90;;;;;;;11.65;75.99;101859.22;15830385;28;20090;-64
2021/05/29 04:41:25;;;;;;;1999.90;999.90;;;;;;;11.53;76.19;101876.53;15847716;28;20040;-64
2021/05/29 04:48:57;;;;;;;1999.90;999.90;;;;;;;11.39;76.86;101873.72;15877103;28;20062;-64
2021/05/29 04:56:33;;;;;;;1999.90;999.90;;;;;;;11.44;77.37;101879.22;15859808;28;20108;-64
2021/05/29 05:04:05;;;;;;;1999.90;999.90;;;;;;;11.73;76.55;101884.47;15859037;28;20039;-64
2021/05/29 05:11:37;;;;;;;1999.90;999.90;;;;;;;11.79;75.85;101890.81;15876823;28;20039;-64
2021/05/29 05:19:09;;;;;;;1999.90;999.90;;;;;;;11.86;75.74;101888.41;15876462;28;20448;-64
2021/05/29 05:26:42;;;;;;;1999.90;999.90;;;;;;;11.85;75.90;101897.94;15879430;28;20416;-63
2021/05/29 05:34:13;;;;;;;1999.90;999.90;;;;;;;11.90;76.55;101914.63;15876760;28;20051;-62
2021/05/29 05:41:46;;;;;;;1999.90;999.90;;;;;;;11.93;76.07;101916.81;15889514;28;20043;-65
2021/05/29 05:49:17;;;;;;;1999.90;999.90;;;;;;;12.18;75.67;101942.53;15891067;28;20040;-63
2021/05/29 05:56:50;;;;;;;1999.90;999.90;;;;;;;12.22;76.23;101929.59;15859157;28;20043;-64
2021/05/29 06:04:21;;;;;;;1999.90;999.90;;;;;;;12.31;76.53;101941.72;15878732;28;20066;-63
2021/05/29 06:11:56;;;;;;;1999.90;999.90;;;;;;;12.43;75.39;101944.78;15872294;28;20048;-64
2021/05/29 06:19:27;;;;;;;1999.90;999.90;;;;;;;12.50;75.96;101955.50;15887978;28;20127;-64
2021/05/29 06:27:00;;;;;;;1999.90;999.90;;;;;;;12.55;75.41;101958.22;15885000;22;20181;-75
2021/05/29 06:34:31;;;;;;;1999.90;999.90;;;;;;;12.69;76.22;101964.56;15821096;28;20047;-74
2021/05/29 06:42:04;;;;;;;1999.90;999.90;;;;;;;13.14;74.80;101958.97;15809380;28;20411;-74
2021/05/29 06:49:37;;;;;;;1999.90;999.90;;;;;;;12.97;76.39;101962.50;15806747;28;20124;-75
2021/05/29 07:04:59;;;;;;;1999.90;999.90;;;;;;;13.17;74.60;101981.59;15806451;28;20523;-75
2021/05/29 07:12:31;;;;;;;1999.90;999.90;;;;;;;13.40;73.51;101989.97;15805931;28;20033;-76
2021/05/29 07:20:03;;;;;;;1999.90;999.90;;;;;;;13.27;73.68;101988.94;15805974;28;20051;-76
2021/05/29 07:27:36;;;;;;;1999.90;999.90;;;;;;;13.30;74.06;101996.69;15805286;28;20055;-76
2021/05/29 07:35:08;;;;;;;1999.90;999.90;;;;;;;13.90;71.61;101996.16;15805045;28;20055;-76
2021/05/29 07:42:41;;;;;;;1999.90;999.90;;;;;;;14.47;71.26;101993.34;15806869;28;20048;-74
2021/05/29 07:50:14;;;;;;;1999.90;999.90;;;;;;;14.36;69.42;101992.78;15804443;28;20085;-74
2021/05/29 07:57:46;;;;;;;1999.90;999.90;;;;;;;14.40;71.51;101995.78;15805814;28;20048;-76
2021/05/29 08:05:20;;;;;;;1999.90;999.90;;;;;;;15.29;68.09;101989.50;15802621;28;20097;-75
2021/05/29 08:12:52;;;;;;;1999.90;999.90;;;;;;;16.30;65.56;101998.19;15803031;28;20496;-75
2021/05/29 08:20:24;;;;;;;1999.90;999.90;;;;;;;17.28;60.38;102007.19;15802574;28;20101;-76
2021/05/29 08:27:57;;;;;;;1999.90;999.90;;;;;;;18.46;60.50;102006.38;15802346;28;20105;-76
2021/05/29 08:35:29;;;;;;;1999.90;999.90;;;;;;;18.59;58.04;102013.66;15804245;28;20083;-77
2021/05/29 08:43:02;;;;;;;1999.90;999.90;;;;;;;18.94;54.44;102019.59;15838335;28;20121;-75
2021/05/29 08:50:34;;;;;;;1999.90;999.90;;;;;;;19.38;53.05;102015.97;15827799;28;20477;-76
2021/05/29 08:58:06;;;;;;;1999.90;999.90;;;;;;;20.07;53.52;102018.25;15801559;28;20040;-76
2021/05/29 09:05:40;;;;;;;1999.90;999.90;;;;;;;19.03;54.00;102025.91;15801755;28;20392;-76
2021/05/29 09:13:14;;;;;;;1999.90;999.90;;;;;;;18.21;57.20;102025.34;15801575;28;20076;-76
2021/05/29 09:20:46;;;;;;;1999.90;999.90;;;;;;;18.59;54.46;102024.16;15802902;28;20504;-77
2021/05/29 09:28:23;;;;;;;1999.90;999.90;;;;;;;18.24;55.45;102018.19;15781745;28;20594;-76
2021/05/29 09:35:56;;;;;;;1999.90;999.90;;;;;;;18.18;54.27;102024.06;15811522;28;20080;-76
2021/05/29 09:43:29;;;;;;;1999.90;999.90;;;;;;;18.09;55.46;102009.22;15811066;28;20048;-76
2021/05/29 09:51:09;;;;;;;1999.90;999.90;;;;;;;19.70;53.70;102022.56;15808903;28;20044;-76
2021/05/29 09:59:00;;;;;;;1999.90;999.90;;;;;;;18.79;55.04;102037.31;15810980;28;20044;-75
2021/05/29 10:06:32;;;;;;;1999.90;999.90;;;;;;;18.75;54.73;102033.53;15809222;28;20048;-76
2021/05/29 10:14:07;;;;;;;1999.90;999.90;;;;;;;17.96;56.06;102035.00;15809717;28;20130;-76
2021/05/29 10:21:38;;;;;;;1999.90;999.90;;;;;;;18.55;56.27;102034.50;15808840;28;20040;-76
2021/05/29 10:29:11;;;;;;;1999.90;999.90;;;;;;;20.53;50.60;102027.09;15790232;28;20400;-75
2021/05/29 10:36:45;;;;;;;1999.90;999.90;;;;;;;20.03;51.91;102030.69;15808048;28;20044;-75
2021/05/29 10:44:38;;;;;;;1999.90;999.90;;;;;;;20.91;50.12;102034.00;15806665;28;20044;-76
2021/05/29 10:52:10;;;;;;;1999.90;999.90;;;;;;;20.13;50.58;102022.47;15806533;28;20531;-76
2021/05/29 10:59:42;;;;;;;1999.90;999.90;;;;;;;20.73;50.12;102023.06;15806586;28;20124;-76
2021/05/29 11:07:24;;;;;;;1999.90;999.90;;;;;;;21.26;47.50;102022.63;15805918;28;20101;-76
2021/05/29 11:14:56;;;;;;;1999.90;999.90;;;;;;;22.01;48.09;102021.97;15805844;28;20051;-77
2021/05/29 11:22:38;;;;;;;1999.90;999.90;;;;;;;24.11;42.97;102033.25;15805151;28;20178;-76
2021/05/29 11:30:13;;;;;;;1999.90;999.90;;;;;;;23.17;45.43;102011.91;15804722;28;20466;-76
2021/05/29 11:38:06;;;;;;;1999.90;999.90;;;;;;;21.73;47.58;102033.66;15802997;28;20515;-76
2021/05/29 11:45:39;;;;;;;1999.90;999.90;;;;;;;21.50;48.30;102025.13;15803096;28;20044;-77
2021/05/29 11:53:11;;;;;;;1999.90;999.90;;;;;;;20.75;47.69;102026.38;15802945;28;20040;-76
2021/05/29 12:00:56;;;;;;;1999.90;999.90;;;;;;;19.17;51.66;102036.81;15803665;28;20044;-75
2021/05/29 12:08:28;;;;;;;1999.90;999.90;;;;;;;21.52;47.28;102025.56;15803149;28;20043;-76
2021/05/29 12:16:02;;;;;;;1999.90;999.90;;;;;;;18.85;50.79;102032.22;15803675;28;20040;-76
2021/05/29 12:23:51;;;;;;;1999.90;999.90;;;;;;;22.53;46.74;102016.72;15802274;28;20385;-75
2021/05/29 12:31:23;;;;;;;1999.90;999.90;;;;;;;23.85;41.33;102039.13;15799877;28;20550;-76
2021/05/29 12:38:59;;;;;;;1999.90;999.90;;;;;;;22.47;44.13;102039.78;15809062;22;20504;-62
2021/05/29 12:46:32;;;;;;;1999.90;999.90;;;;;;;23.45;42.25;102023.66;15749086;28;20578;-62
2021/05/29 12:54:04;;;;;;;1999.90;999.90;;;;;;;26.14;39.60;102019.03;15721506;28;20056;-63
2021/05/29 13:01:56;;;;;;;1999.90;999.90;;;;;;;28.51;34.45;102024.00;15738866;28;20056;-64
2021/05/29 13:09:31;;;;;;;1999.90;999.90;;;;;;;22.91;42.72;102009.94;15748112;28;20568;-64
2021/05/29 13:17:05;;;;;;;1999.90;999.90;;;;;;;22.07;44.84;102006.25;15732173;28;20048;-64
2021/05/29 13:24:39;;;;;;;1999.90;999.90;;;;;;;22.12;46.72;102003.09;15731902;28;20051;-64
2021/05/29 13:32:12;;;;;;;1999.90;999.90;;;;;;;20.02;47.52;102006.41;15748578;28;20076;-64
2021/05/29 13:39:45;;;;;;;1999.90;999.90;;;;;;;20.25;48.97;102000.88;15731330;28;20105;-63
2021/05/29 13:47:17;;;;;;;1999.90;999.90;;;;;;;19.76;49.88;102010.59;15748030;28;20048;-62
2021/05/29 13:54:48;;;;;;;1999.90;999.90;;;;;;;20.08;49.26;101993.56;15730016;28;20037;-64
2021/05/29 14:02:21;;;;;;;1999.90;999.90;;;;;;;20.87;49.45;102001.91;15748207;28;20036;-63
2021/05/29 14:09:52;;;;;;;1999.90;999.90;;;;;;;20.18;50.46;101995.84;15712389;28;20053;-63
2021/05/29 14:17:25;;;;;;;1999.90;999.90;;;;;;;19.99;51.50;101993.75;15745816;28;20045;-63
2021/05/29 14:24:57;;;;;;;1999.90;999.90;;;;;;;19.98;50.21;101988.47;15729266;28;20070;-63
2021/05/29 14:32:29;;;;;;;1999.90;999.90;;;;;;;20.35;49.87;101983.28;15728594;28;20047;-64
2021/05/29 14:40:01;;;;;;;1999.90;999.90;;;;;;;20.15;49.10;101974.75;15745763;28;20512;-62
2021/05/29 14:47:33;;;;;;;1999.90;999.90;;;;;;;20.25;49.00;101975.38;15727202;28;20032;-62
2021/05/29 14:55:06;;;;;;;1999.90;999.90;;;;;;;20.12;49.65;101977.50;15727419;28;20649;-63
2021/05/29 15:02:41;;;;;;;1999.90;999.90;;;;;;;19.84;49.62;101986.94;15743982;28;20059;-63
2021/05/29 15:10:13;;;;;;;1999.90;999.90;;;;;;;19.68;50.93;101982.44;15709645;28;20063;-63
2021/05/29 15:17:45;;;;;;;1999.90;999.90;;;;;;;19.81;51.28;101989.69;15725857;28;20036;-63
2021/05/29 15:25:21;;;;;;;1999.90;999.90;;;;;;;19.57;53.48;101973.66;15726202;28;20048;-61
2021/05/29 15:32:54;;;;;;;1999.90;999.90;;;;;;;19.53;52.65;101970.72;15742554;28;20045;-64
2021/05/29 15:40:26;;;;;;;1999.90;999.90;;;;;;;19.66;52.41;101965.00;15742626;28;20045;-65
2021/05/29 15:47:58;;;;;;;1999.90;999.90;;;;;;;19.52;52.04;101971.09;15723576;28;20095;-63
2021/05/29 15:55:30;;;;;;;1999.90;999.90;;;;;;;19.53;51.70;101961.41;15741135;28;20127;-65
2021/05/29 16:03:02;;;;;;;1999.90;999.90;;;;;;;19.71;52.93;101965.56;15723269;28;20041;-63
2021/05/29 16:10:35;;;;;;;1999.90;999.90;;;;;;;19.56;53.06;101964.34;15740101;28;20052;-64
2021/05/29 16:18:07;;;;;;;1999.90;999.90;;;;;;;19.68;53.33;101956.94;15740292;28;20056;-62
2021/05/29 16:25:39;;;;;;;1999.90;999.90;;;;;;;19.49;52.05;101963.34;15739888;28;20524;-64
2021/05/29 16:33:14;;;;;;;1999.90;999.90;;;;;;;19.25;52.73;101962.28;15721000;28;20497;-63
2021/05/29 16:40:48;;;;;;;1999.90;999.90;;;;;;;19.58;51.74;101955.50;15739204;28;20063;-64
2021/05/29 16:48:21;;;;;;;1999.90;999.90;;;;;;;19.42;53.26;101968.78;15739299;28;20045;-64
2021/05/29 16:55:58;;;;;;;1999.90;999.90;;;;;;;18.93;54.57;101961.38;15738573;28;20054;-63
2021/05/29 17:03:30;;;;;;;1999.90;999.90;;;;;;;19.18;54.19;101964.09;15738800;28;20037;-62
2021/05/29 17:11:04;;;;;;;1999.90;999.90;;;;;;;18.90;54.97;101972.59;15720343;28;20052;-64
2021/05/29 17:18:37;;;;;;;1999.90;999.90;;;;;;;19.15;54.61;101973.28;15737985;28;20045;-63
2021/05/29 17:26:09;;;;;;;1999.90;999.90;;;;;;;19.28;54.60;101972.06;15719881;28;20098;-64
2021/05/29 17:33:43;;;;;;;1999.90;999.90;;;;;;;18.85;54.58;101959.53;15719885;28;20040;-64
2021/05/29 17:41:15;;;;;;;1999.90;999.90;;;;;;;19.22;54.68;101970.69;15719600;28;20045;-63
2021/05/29 17:48:47;;;;;;;1999.90;999.90;;;;;;;18.92;55.63;101976.72;15719474;28;20041;-64
2021/05/29 17:56:19;;;;;;;1999.90;999.90;;;;;;;18.79;55.93;101977.94;15747511;28;20040;-62
2021/05/29 18:03:51;;;;;;;1999.90;999.90;;;;;;;18.58;56.32;101986.56;15730524;28;20135;-62
2021/05/29 18:11:23;;;;;;;1999.90;999.90;;;;;;;18.66;56.07;101984.81;15737699;28;20055;-64
2021/05/29 18:18:56;;;;;;;1999.90;999.90;;;;;;;18.63;56.48;101986.31;15737198;28;20334;-64
2021/05/29 18:26:27;;;;;;;1999.90;999.90;;;;;;;18.33;56.63;101997.09;15729388;28;20047;-64
2021/05/29 18:34:00;;;;;;;1999.90;999.90;;;;;;;17.99;56.88;101995.59;15746273;28;20040;-62
2021/05/29 18:41:31;;;;;;;1999.90;999.90;;;;;;;17.90;57.07;102006.16;15727279;28;20051;-64
2021/05/29 18:49:07;;;;;;;1999.90;999.90;;;;;;;18.09;56.32;102016.88;15744023;28;20076;-65
2021/05/29 18:56:39;;;;;;;1999.90;999.90;;;;;;;17.82;57.34;102019.25;15773098;28;20489;-64
2021/05/29 19:04:15;;;;;;;1999.90;999.90;;;;;;;17.90;58.15;102028.75;15788586;28;20041;-65
2021/05/29 19:11:47;;;;;;;1999.90;999.90;;;;;;;17.81;56.25;102031.69;15789882;28;20048;-64
2021/05/29 19:19:20;;;;;;;1999.90;999.90;;;;;;;17.51;54.69;102044.31;15807573;28;20048;-65
2021/05/29 19:42:41;;;;;;;1999.90;999.90;;;;;;;17.00;49.29;102066.19;15787839;28;20044;-65
2021/05/29 20:16:10;;;;;;;1999.90;999.90;;;;;;;17.07;48.79;102091.81;15750418;28;20051;-65
2021/05/29 20:29:56;;;;;;;1999.90;999.90;;;;;;;16.89;48.75;102098.78;15803643;28;20044;-63
2021/05/29 20:37:30;;;;;;;1999.90;999.90;;;;;;;16.90;49.69;102106.91;15786713;28;20040;-64
2021/05/29 20:45:03;;;;;;;1999.90;999.90;;;;;;;16.72;50.09;102109.00;15805130;28;20127;-64
2021/05/29 20:52:36;;;;;;;1999.90;999.90;;;;;;;16.59;50.56;102112.88;15804276;28;20055;-65
2021/05/29 21:00:09;;;;;;;1999.90;999.90;;;;;;;16.34;51.00;102113.81;15803911;28;20055;-64
2021/05/29 21:07:42;;;;;;;1999.90;999.90;;;;;;;16.35;51.37;102118.28;15786909;28;20051;-65
2021/05/29 21:15:17;;;;;;;1999.90;999.90;;;;;;;16.02;52.99;102124.53;15803525;28;20071;-63
2021/05/29 21:22:49;;;;;;;1999.90;999.90;;;;;;;16.22;53.96;102133.44;15783401;28;20043;-64
2021/05/29 21:30:21;;;;;;;1999.90;999.90;;;;;;;16.12;54.70;102143.91;15791572;28;20474;-64
2021/05/29 21:37:54;;;;;;;1999.90;999.90;;;;;;;15.98;54.49;102148.09;15812697;28;20058;-64
2021/05/29 21:53:17;;;;;;;1999.90;999.90;;;;;;;15.71;50.10;102163.38;15813381;28;20102;-63
2021/05/29 22:00:53;;;;;;;1999.90;999.90;;;;;;;15.55;46.43;102175.13;15792977;28;20048;-63
2021/05/29 22:08:27;;;;;;;1999.90;999.90;;;;;;;15.49;44.21;102165.19;15810381;28;20072;-64
2021/05/29 22:31:39;;;;;;;1999.90;999.90;;;;;;;15.51;47.86;102167.66;15809351;28;20044;-64
2021/05/29 22:39:13;;;;;;;1999.90;999.90;;;;;;;15.31;45.43;102161.53;15807970;28;20465;-64
2021/05/29 22:46:45;;;;;;;1999.90;999.90;;;;;;;15.65;46.64;102171.16;15805287;28;20072;-64
2021/05/29 22:54:17;;;;;;;1999.90;999.90;;;;;;;15.35;47.71;102169.31;15787456;28;20036;-63
2021/05/29 23:01:49;;;;;;;1999.90;999.90;;;;;;;15.28;47.16;102173.44;15787445;28;20113;-64
2021/05/29 23:09:21;;;;;;;1999.90;999.90;;;;;;;14.94;48.66;102174.25;15803908;28;20044;-64
2021/05/29 23:16:53;;;;;;;1999.90;999.90;;;;;;;14.62;50.06;102174.66;15769702;28;20052;-64
2021/05/29 23:24:25;;;;;;;1999.90;999.90;;;;;;;13.96;52.30;102180.06;15804390;28;20416;-64
2021/05/29 23:31:57;;;;;;;1999.90;999.90;;;;;;;13.56;52.72;102179.16;15785261;28;20244;-64
2021/05/29 23:39:29;;;;;;;1999.90;999.90;;;;;;;13.38;52.79;102177.34;15768689;28;1034699;-64
2021/05/29 23:47:01;;;;;;;1999.90;999.90;;;;;;;13.57;52.64;102190.03;15787998;28;20066;-64
2021/05/29 23:54:33;;;;;;;1999.90;999.90;;;;;;;13.51;53.88;102176.44;15785794;28;20124;-64
